sensor_id;sensor_type;location;lat;lon;timestamp;temperature;humidity
47757;SHT35;22147;52.388;13.390;2022-09-03T00:00:59;12.93;68.51
47757;SHT35;22147;52.388;13.390;2022-09-03T00:03:44;12.96;68.55
47757;SHT35;22147;52.388;13.390;2022-09-03T00:06:26;12.92;68.97
47757;SHT35;22147;52.388;13.390;2022-09-03T00:09:29;12.89;69.10
47757;SHT35;22147;52.388;13.390;2022-09-03T00:12:17;12.82;69.24
47757;SHT35;22147;52.388;13.390;2022-09-03T00:15:00;12.87;68.46
47757;SHT35;22147;52.388;13.390;2022-09-03T00:17:40;12.86;68.61
47757;SHT35;22147;52.388;13.390;2022-09-03T00:23:19;12.86;68.26
47757;SHT35;22147;52.388;13.390;2022-09-03T00:26:13;12.84;68.57
47757;SHT35;22147;52.388;13.390;2022-09-03T00:29:15;12.68;69.26
47757;SHT35;22147;52.388;13.390;2022-09-03T00:31:56;12.69;69.48
47757;SHT35;22147;52.388;13.390;2022-09-03T00:34:33;12.63;69.30
47757;SHT35;22147;52.388;13.390;2022-09-03T00:37:02;12.65;69.35
47757;SHT35;22147;52.388;13.390;2022-09-03T00:39:29;12.71;69.27
47757;SHT35;22147;52.388;13.390;2022-09-03T00:48:32;12.62;70.18
47757;SHT35;22147;52.388;13.390;2022-09-03T00:55:14;12.51;70.42
47757;SHT35;22147;52.388;13.390;2022-09-03T01:00:40;12.36;71.04
47757;SHT35;22147;52.388;13.390;2022-09-03T01:07:04;12.28;71.31
47757;SHT35;22147;52.388;13.390;2022-09-03T01:13:24;12.20;71.33
47757;SHT35;22147;52.388;13.390;2022-09-03T01:16:39;12.21;71.55
47757;SHT35;22147;52.388;13.390;2022-09-03T01:26:24;12.17;71.37
47757;SHT35;22147;52.388;13.390;2022-09-03T01:29:25;12.14;71.18
47757;SHT35;22147;52.388;13.390;2022-09-03T01:36:26;12.18;71.27
47757;SHT35;22147;52.388;13.390;2022-09-03T01:39:16;12.14;71.07
47757;SHT35;22147;52.388;13.390;2022-09-03T01:42:50;12.10;71.37
47757;SHT35;22147;52.388;13.390;2022-09-03T01:45:38;12.13;71.33
47757;SHT35;22147;52.388;13.390;2022-09-03T01:48:48;12.17;70.86
47757;SHT35;22147;52.388;13.390;2022-09-03T01:51:27;12.21;70.69
47757;SHT35;22147;52.388;13.390;2022-09-03T01:54:35;12.11;71.06
47757;SHT35;22147;52.388;13.390;2022-09-03T02:00:21;12.05;71.27
47757;SHT35;22147;52.388;13.390;2022-09-03T02:02:51;12.04;71.78
47757;SHT35;22147;52.388;13.390;2022-09-03T02:05:26;12.05;71.22
47757;SHT35;22147;52.388;13.390;2022-09-03T02:08:07;12.04;71.71
47757;SHT35;22147;52.388;13.390;2022-09-03T02:10:48;12.00;71.84
47757;SHT35;22147;52.388;13.390;2022-09-03T02:13:26;12.04;71.07
47757;SHT35;22147;52.388;13.390;2022-09-03T02:16:11;12.10;70.82
47757;SHT35;22147;52.388;13.390;2022-09-03T02:18:49;12.10;70.99
47757;SHT35;22147;52.388;13.390;2022-09-03T02:21:24;12.10;71.02
47757;SHT35;22147;52.388;13.390;2022-09-03T02:23:51;12.03;71.47
47757;SHT35;22147;52.388;13.390;2022-09-03T02:26:23;11.97;71.09
47757;SHT35;22147;52.388;13.390;2022-09-03T02:28:53;11.98;71.26
47757;SHT35;22147;52.388;13.390;2022-09-03T02:31:21;11.91;71.80
47757;SHT35;22147;52.388;13.390;2022-09-03T02:33:50;11.91;71.59
47757;SHT35;22147;52.388;13.390;2022-09-03T02:36:28;11.91;71.37
47757;SHT35;22147;52.388;13.390;2022-09-03T02:38:57;11.89;71.96
47757;SHT35;22147;52.388;13.390;2022-09-03T02:41:24;11.93;71.51
47757;SHT35;22147;52.388;13.390;2022-09-03T02:46:49;12.01;70.99
47757;SHT35;22147;52.388;13.390;2022-09-03T02:49:17;11.93;71.57
47757;SHT35;22147;52.388;13.390;2022-09-03T02:51:45;11.86;71.60
47757;SHT35;22147;52.388;13.390;2022-09-03T02:54:12;11.86;71.63
47757;SHT35;22147;52.388;13.390;2022-09-03T02:56:44;11.82;71.68
47757;SHT35;22147;52.388;13.390;2022-09-03T02:59:14;11.83;71.83
47757;SHT35;22147;52.388;13.390;2022-09-03T03:01:44;11.80;71.80
47757;SHT35;22147;52.388;13.390;2022-09-03T03:04:13;11.82;71.81
47757;SHT35;22147;52.388;13.390;2022-09-03T03:06:41;11.74;72.28
47757;SHT35;22147;52.388;13.390;2022-09-03T03:09:13;11.70;72.55
47757;SHT35;22147;52.388;13.390;2022-09-03T03:11:40;11.66;72.25
47757;SHT35;22147;52.388;13.390;2022-09-03T03:14:07;11.69;72.31
47757;SHT35;22147;52.388;13.390;2022-09-03T03:16:35;11.70;72.31
47757;SHT35;22147;52.388;13.390;2022-09-03T03:19:03;11.67;72.36
47757;SHT35;22147;52.388;13.390;2022-09-03T03:21:30;11.69;72.23
47757;SHT35;22147;52.388;13.390;2022-09-03T03:23:57;11.83;71.23
47757;SHT35;22147;52.388;13.390;2022-09-03T03:26:24;11.90;71.16
47757;SHT35;22147;52.388;13.390;2022-09-03T03:29:01;11.91;70.70
47757;SHT35;22147;52.388;13.390;2022-09-03T03:31:32;11.94;70.72
47757;SHT35;22147;52.388;13.390;2022-09-03T03:34:02;12.01;70.46
47757;SHT35;22147;52.388;13.390;2022-09-03T03:36:32;12.05;69.97
47757;SHT35;22147;52.388;13.390;2022-09-03T03:39:00;12.11;70.19
47757;SHT35;22147;52.388;13.390;2022-09-03T03:41:32;12.13;70.10
47757;SHT35;22147;52.388;13.390;2022-09-03T03:44:07;12.03;70.44
47757;SHT35;22147;52.388;13.390;2022-09-03T03:46:40;12.03;70.70
47757;SHT35;22147;52.388;13.390;2022-09-03T03:49:08;12.00;70.47
47757;SHT35;22147;52.388;13.390;2022-09-03T03:51:38;12.05;70.18
47757;SHT35;22147;52.388;13.390;2022-09-03T03:54:06;12.04;69.99
47757;SHT35;22147;52.388;13.390;2022-09-03T03:56:33;12.05;70.35
47757;SHT35;22147;52.388;13.390;2022-09-03T03:59:03;12.04;70.12
47757;SHT35;22147;52.388;13.390;2022-09-03T04:01:30;12.05;69.91
47757;SHT35;22147;52.388;13.390;2022-09-03T04:03:59;12.07;70.15
47757;SHT35;22147;52.388;13.390;2022-09-03T04:06:27;12.05;70.45
47757;SHT35;22147;52.388;13.390;2022-09-03T04:08:54;12.03;70.57
47757;SHT35;22147;52.388;13.390;2022-09-03T04:11:24;12.13;69.94
47757;SHT35;22147;52.388;13.390;2022-09-03T04:13:52;12.08;69.88
47757;SHT35;22147;52.388;13.390;2022-09-03T04:16:26;12.03;70.08
47757;SHT35;22147;52.388;13.390;2022-09-03T04:18:55;12.04;70.06
47757;SHT35;22147;52.388;13.390;2022-09-03T04:21:30;12.17;69.74
47757;SHT35;22147;52.388;13.390;2022-09-03T04:23:58;12.22;69.58
47757;SHT35;22147;52.388;13.390;2022-09-03T04:26:28;12.17;69.49
47757;SHT35;22147;52.388;13.390;2022-09-03T04:29:06;12.15;69.59
47757;SHT35;22147;52.388;13.390;2022-09-03T04:31:37;12.11;69.85
47757;SHT35;22147;52.388;13.390;2022-09-03T04:34:05;12.14;70.06
47757;SHT35;22147;52.388;13.390;2022-09-03T04:36:32;12.17;69.74
47757;SHT35;22147;52.388;13.390;2022-09-03T04:39:01;12.17;69.87
47757;SHT35;22147;52.388;13.390;2022-09-03T04:41:30;12.20;70.18
47757;SHT35;22147;52.388;13.390;2022-09-03T04:43:59;12.21;70.10
47757;SHT35;22147;52.388;13.390;2022-09-03T04:46:28;12.20;69.83
47757;SHT35;22147;52.388;13.390;2022-09-03T04:49:01;12.21;70.02
47757;SHT35;22147;52.388;13.390;2022-09-03T04:51:30;12.32;69.65
47757;SHT35;22147;52.388;13.390;2022-09-03T04:54:01;12.31;69.30
47757;SHT35;22147;52.388;13.390;2022-09-03T04:56:33;12.35;69.46
47757;SHT35;22147;52.388;13.390;2022-09-03T04:59:06;12.39;69.38
47757;SHT35;22147;52.388;13.390;2022-09-03T05:01:37;12.39;69.65
47757;SHT35;22147;52.388;13.390;2022-09-03T05:04:07;12.46;69.51
47757;SHT35;22147;52.388;13.390;2022-09-03T05:06:36;12.55;68.97
47757;SHT35;22147;52.388;13.390;2022-09-03T05:09:05;12.49;69.52
47757;SHT35;22147;52.388;13.390;2022-09-03T05:11:32;12.48;69.43
47757;SHT35;22147;52.388;13.390;2022-09-03T05:13:59;12.46;69.84
47757;SHT35;22147;52.388;13.390;2022-09-03T05:16:28;12.53;69.34
47757;SHT35;22147;52.388;13.390;2022-09-03T05:18:59;12.59;69.37
47757;SHT35;22147;52.388;13.390;2022-09-03T05:21:29;12.59;69.48
47757;SHT35;22147;52.388;13.390;2022-09-03T05:23:59;12.65;69.46
47757;SHT35;22147;52.388;13.390;2022-09-03T05:26:32;12.71;69.35
47757;SHT35;22147;52.388;13.390;2022-09-03T05:29:05;12.71;69.36
47757;SHT35;22147;52.388;13.390;2022-09-03T05:31:38;12.77;69.41
47757;SHT35;22147;52.388;13.390;2022-09-03T05:34:07;12.77;69.20
47757;SHT35;22147;52.388;13.390;2022-09-03T05:36:39;12.80;69.53
47757;SHT35;22147;52.388;13.390;2022-09-03T05:39:06;12.86;69.57
47757;SHT35;22147;52.388;13.390;2022-09-03T05:41:34;12.89;69.11
47757;SHT35;22147;52.388;13.390;2022-09-03T05:44:01;12.89;69.51
47757;SHT35;22147;52.388;13.390;2022-09-03T05:46:33;12.90;69.86
47757;SHT35;22147;52.388;13.390;2022-09-03T05:49:06;12.93;69.26
47757;SHT35;22147;52.388;13.390;2022-09-03T05:51:37;12.96;69.61
47757;SHT35;22147;52.388;13.390;2022-09-03T05:54:09;12.97;69.95
47757;SHT35;22147;52.388;13.390;2022-09-03T05:56:39;13.03;69.70
47757;SHT35;22147;52.388;13.390;2022-09-03T05:59:09;13.00;70.20
47757;SHT35;22147;52.388;13.390;2022-09-03T06:01:42;13.10;69.81
47757;SHT35;22147;52.388;13.390;2022-09-03T06:04:19;13.11;69.59
47757;SHT35;22147;52.388;13.390;2022-09-03T06:06:47;13.13;69.60
47757;SHT35;22147;52.388;13.390;2022-09-03T06:09:20;13.14;70.08
47757;SHT35;22147;52.388;13.390;2022-09-03T06:11:50;13.17;69.89
47757;SHT35;22147;52.388;13.390;2022-09-03T06:14:19;13.34;69.27
47757;SHT35;22147;52.388;13.390;2022-09-03T06:16:48;13.32;69.60
47757;SHT35;22147;52.388;13.390;2022-09-03T06:19:16;13.37;69.93
47757;SHT35;22147;52.388;13.390;2022-09-03T06:21:46;13.35;70.66
47757;SHT35;22147;52.388;13.390;2022-09-03T06:24:19;13.42;71.07
47757;SHT35;22147;52.388;13.390;2022-09-03T06:26:56;13.55;69.73
47757;SHT35;22147;52.388;13.390;2022-09-03T06:29:24;13.57;70.33
47757;SHT35;22147;52.388;13.390;2022-09-03T06:31:51;13.65;69.19
47757;SHT35;22147;52.388;13.390;2022-09-03T06:34:18;13.82;68.78
47757;SHT35;22147;52.388;13.390;2022-09-03T06:36:48;13.73;69.90
47757;SHT35;22147;52.388;13.390;2022-09-03T06:39:15;13.81;69.59
47757;SHT35;22147;52.388;13.390;2022-09-03T06:41:42;13.78;69.02
47757;SHT35;22147;52.388;13.390;2022-09-03T06:44:11;13.72;69.16
47757;SHT35;22147;52.388;13.390;2022-09-03T06:46:40;13.70;68.88
47757;SHT35;22147;52.388;13.390;2022-09-03T06:49:13;13.66;69.34
47757;SHT35;22147;52.388;13.390;2022-09-03T06:51:40;13.78;69.12
47757;SHT35;22147;52.388;13.390;2022-09-03T06:54:11;13.83;69.00
47757;SHT35;22147;52.388;13.390;2022-09-03T06:56:40;13.92;69.21
47757;SHT35;22147;52.388;13.390;2022-09-03T06:59:13;14.00;68.84
47757;SHT35;22147;52.388;13.390;2022-09-03T07:01:43;14.10;68.62
47757;SHT35;22147;52.388;13.390;2022-09-03T07:04:14;14.13;69.75
47757;SHT35;22147;52.388;13.390;2022-09-03T07:06:46;14.23;67.82
47757;SHT35;22147;52.388;13.390;2022-09-03T07:09:13;14.38;67.39
47757;SHT35;22147;52.388;13.390;2022-09-03T07:11:46;14.40;67.96
47757;SHT35;22147;52.388;13.390;2022-09-03T07:14:18;14.47;67.69
47757;SHT35;22147;52.388;13.390;2022-09-03T07:16:48;14.63;67.63
47757;SHT35;22147;52.388;13.390;2022-09-03T07:19:16;14.75;67.34
47757;SHT35;22147;52.388;13.390;2022-09-03T07:21:43;15.02;66.44
47757;SHT35;22147;52.388;13.390;2022-09-03T07:24:18;14.85;66.86
47757;SHT35;22147;52.388;13.390;2022-09-03T07:26:48;14.89;68.04
47757;SHT35;22147;52.388;13.390;2022-09-03T07:29:17;15.16;66.52
47757;SHT35;22147;52.388;13.390;2022-09-03T07:31:49;15.22;65.66
47757;SHT35;22147;52.388;13.390;2022-09-03T07:34:21;15.22;66.58
47757;SHT35;22147;52.388;13.390;2022-09-03T07:36:52;15.29;66.91
47757;SHT35;22147;52.388;13.390;2022-09-03T07:39:19;15.50;65.85
47757;SHT35;22147;52.388;13.390;2022-09-03T07:41:46;15.61;65.48
47757;SHT35;22147;52.388;13.390;2022-09-03T07:44:17;15.63;65.02
47757;SHT35;22147;52.388;13.390;2022-09-03T07:46:47;15.68;66.42
47757;SHT35;22147;52.388;13.390;2022-09-03T07:49:18;15.74;64.80
47757;SHT35;22147;52.388;13.390;2022-09-03T07:51:47;15.75;65.22
47757;SHT35;22147;52.388;13.390;2022-09-03T07:54:16;15.90;64.93
47757;SHT35;22147;52.388;13.390;2022-09-03T07:56:43;16.00;65.18
47757;SHT35;22147;52.388;13.390;2022-09-03T07:59:10;16.09;65.65
47757;SHT35;22147;52.388;13.390;2022-09-03T08:01:38;16.33;65.67
47757;SHT35;22147;52.388;13.390;2022-09-03T08:04:08;16.50;64.81
47757;SHT35;22147;52.388;13.390;2022-09-03T08:06:38;16.81;65.34
47757;SHT35;22147;52.388;13.390;2022-09-03T08:09:10;17.08;62.37
47757;SHT35;22147;52.388;13.390;2022-09-03T08:11:42;17.34;61.00
47757;SHT35;22147;52.388;13.390;2022-09-03T08:14:13;17.40;60.31
47757;SHT35;22147;52.388;13.390;2022-09-03T08:16:45;17.43;60.00
47757;SHT35;22147;52.388;13.390;2022-09-03T08:19:17;17.83;59.20
47757;SHT35;22147;52.388;13.390;2022-09-03T08:21:45;17.96;58.52
47757;SHT35;22147;52.388;13.390;2022-09-03T08:24:17;18.34;57.70
47757;SHT35;22147;52.388;13.390;2022-09-03T08:26:47;18.42;57.61
47757;SHT35;22147;52.388;13.390;2022-09-03T08:29:19;18.45;57.54
47757;SHT35;22147;52.388;13.390;2022-09-03T08:31:47;18.51;57.67
47757;SHT35;22147;52.388;13.390;2022-09-03T08:34:15;18.77;57.04
47757;SHT35;22147;52.388;13.390;2022-09-03T08:36:45;18.96;57.11
47757;SHT35;22147;52.388;13.390;2022-09-03T08:39:13;19.44;54.68
47757;SHT35;22147;52.388;13.390;2022-09-03T08:44:45;19.58;53.09
47757;SHT35;22147;52.388;13.390;2022-09-03T08:48:00;19.78;53.93
47757;SHT35;22147;52.388;13.390;2022-09-03T08:50:40;19.92;53.72
47757;SHT35;22147;52.388;13.390;2022-09-03T08:56:10;20.10;51.29
47757;SHT35;22147;52.388;13.390;2022-09-03T08:58:38;20.12;52.12
47757;SHT35;22147;52.388;13.390;2022-09-03T09:05:02;20.29;50.55
47757;SHT35;22147;52.388;13.390;2022-09-03T09:11:00;20.61;50.30
47757;SHT35;22147;52.388;13.390;2022-09-03T09:14:06;20.72;50.36
47757;SHT35;22147;52.388;13.390;2022-09-03T09:16:55;21.18;48.95
47757;SHT35;22147;52.388;13.390;2022-09-03T09:20:05;21.18;50.02
47757;SHT35;22147;52.388;13.390;2022-09-03T09:22:46;20.96;49.63
47757;SHT35;22147;52.388;13.390;2022-09-03T09:25:23;20.58;51.35
47757;SHT35;22147;52.388;13.390;2022-09-03T09:28:13;20.92;50.16
47757;SHT35;22147;52.388;13.390;2022-09-03T09:30:48;21.25;50.99
47757;SHT35;22147;52.388;13.390;2022-09-03T09:33:18;21.37;50.28
47757;SHT35;22147;52.388;13.390;2022-09-03T09:35:48;21.37;47.25
47757;SHT35;22147;52.388;13.390;2022-09-03T09:38:33;21.46;46.11
47757;SHT35;22147;52.388;13.390;2022-09-03T09:41:20;21.43;45.87
47757;SHT35;22147;52.388;13.390;2022-09-03T09:44:02;21.54;46.77
47757;SHT35;22147;52.388;13.390;2022-09-03T09:46:39;21.75;44.44
47757;SHT35;22147;52.388;13.390;2022-09-03T09:49:49;21.59;47.10
47757;SHT35;22147;52.388;13.390;2022-09-03T09:52:22;21.83;45.82
47757;SHT35;22147;52.388;13.390;2022-09-03T09:55:08;21.95;44.88
47757;SHT35;22147;52.388;13.390;2022-09-03T09:57:36;21.81;44.20
47757;SHT35;22147;52.388;13.390;2022-09-03T10:00:17;21.77;44.18
47757;SHT35;22147;52.388;13.390;2022-09-03T10:02:53;21.85;43.31
47757;SHT35;22147;52.388;13.390;2022-09-03T10:05:27;21.78;43.72
47757;SHT35;22147;52.388;13.390;2022-09-03T10:08:20;21.50;45.94
47757;SHT35;22147;52.388;13.390;2022-09-03T10:10:50;21.37;44.99
47757;SHT35;22147;52.388;13.390;2022-09-03T10:13:38;21.35;47.67
47757;SHT35;22147;52.388;13.390;2022-09-03T10:16:26;21.30;46.03
47757;SHT35;22147;52.388;13.390;2022-09-03T10:19:18;21.73;43.36
47757;SHT35;22147;52.388;13.390;2022-09-03T10:22:13;21.85;44.58
47757;SHT35;22147;52.388;13.390;2022-09-03T10:24:59;22.10;43.08
47757;SHT35;22147;52.388;13.390;2022-09-03T10:27:29;22.38;44.25
47757;SHT35;22147;52.388;13.390;2022-09-03T10:29:58;22.25;43.86
47757;SHT35;22147;52.388;13.390;2022-09-03T10:35:35;22.08;41.78
47757;SHT35;22147;52.388;13.390;2022-09-03T10:38:33;21.98;42.51
47757;SHT35;22147;52.388;13.390;2022-09-03T10:41:19;22.32;41.02
47757;SHT35;22147;52.388;13.390;2022-09-03T10:50:29;22.04;37.88
47757;SHT35;22147;52.388;13.390;2022-09-03T11:05:03;22.77;37.71
47757;SHT35;22147;52.388;13.390;2022-09-03T11:08:01;22.58;36.68
47757;SHT35;22147;52.388;13.390;2022-09-03T11:10:41;22.00;38.58
47757;SHT35;22147;52.388;13.390;2022-09-03T11:13:43;21.46;38.24
47757;SHT35;22147;52.388;13.390;2022-09-03T11:16:24;21.35;38.69
47757;SHT35;22147;52.388;13.390;2022-09-03T11:19:09;21.22;40.08
47757;SHT35;22147;52.388;13.390;2022-09-03T11:21:39;21.43;39.44
47757;SHT35;22147;52.388;13.390;2022-09-03T11:24:21;21.92;40.19
47757;SHT35;22147;52.388;13.390;2022-09-03T11:27:19;22.05;39.36
47757;SHT35;22147;52.388;13.390;2022-09-03T11:30:02;22.28;39.56
47757;SHT35;22147;52.388;13.390;2022-09-03T11:32:48;22.62;38.41
47757;SHT35;22147;52.388;13.390;2022-09-03T11:41:23;22.70;37.02
47757;SHT35;22147;52.388;13.390;2022-09-03T11:43:53;22.89;37.42
47757;SHT35;22147;52.388;13.390;2022-09-03T11:48:53;23.38;37.45
47757;SHT35;22147;52.388;13.390;2022-09-03T11:54:23;22.70;36.77
47757;SHT35;22147;52.388;13.390;2022-09-03T11:57:14;22.77;38.05
47757;SHT35;22147;52.388;13.390;2022-09-03T11:59:43;22.91;38.36
47757;SHT35;22147;52.388;13.390;2022-09-03T12:02:28;22.80;39.19
47757;SHT35;22147;52.388;13.390;2022-09-03T12:06:04;22.86;37.36
47757;SHT35;22147;52.388;13.390;2022-09-03T12:09:10;22.65;37.30
47757;SHT35;22147;52.388;13.390;2022-09-03T12:18:06;22.91;37.02
47757;SHT35;22147;52.388;13.390;2022-09-03T12:26:16;22.66;36.86
47757;SHT35;22147;52.388;13.390;2022-09-03T12:29:05;22.58;38.60
47757;SHT35;22147;52.388;13.390;2022-09-03T12:31:48;22.97;37.94
47757;SHT35;22147;52.388;13.390;2022-09-03T12:34:19;23.21;40.57
47757;SHT35;22147;52.388;13.390;2022-09-03T12:36:52;23.20;37.41
47757;SHT35;22147;52.388;13.390;2022-09-03T12:39:27;22.94;37.83
47757;SHT35;22147;52.388;13.390;2022-09-03T12:42:30;22.79;37.51
47757;SHT35;22147;52.388;13.390;2022-09-03T12:45:09;23.08;38.55
47757;SHT35;22147;52.388;13.390;2022-09-03T12:47:42;23.13;37.22
47757;SHT35;22147;52.388;13.390;2022-09-03T12:50:22;22.83;37.05
47757;SHT35;22147;52.388;13.390;2022-09-03T12:53:02;22.96;37.95
47757;SHT35;22147;52.388;13.390;2022-09-03T12:55:48;23.17;37.38
47757;SHT35;22147;52.388;13.390;2022-09-03T13:01:27;23.48;39.34
47757;SHT35;22147;52.388;13.390;2022-09-03T13:04:13;23.76;36.35
47757;SHT35;22147;52.388;13.390;2022-09-03T13:09:47;23.26;36.05
47757;SHT35;22147;52.388;13.390;2022-09-03T13:12:43;22.91;37.33
47757;SHT35;22147;52.388;13.390;2022-09-03T13:15:25;23.21;39.10
47757;SHT35;22147;52.388;13.390;2022-09-03T13:33:07;23.23;37.44
47757;SHT35;22147;52.388;13.390;2022-09-03T13:36:43;23.18;37.56
47757;SHT35;22147;52.388;13.390;2022-09-03T13:39:47;23.20;38.16
47757;SHT35;22147;52.388;13.390;2022-09-03T13:42:42;23.08;36.98
47757;SHT35;22147;52.388;13.390;2022-09-03T13:45:58;23.51;38.82
47757;SHT35;22147;52.388;13.390;2022-09-03T13:48:44;23.61;36.96
47757;SHT35;22147;52.388;13.390;2022-09-03T13:52:01;23.74;39.58
47757;SHT35;22147;52.388;13.390;2022-09-03T13:54:51;24.00;38.67
47757;SHT35;22147;52.388;13.390;2022-09-03T13:57:25;24.08;36.40
47757;SHT35;22147;52.388;13.390;2022-09-03T14:00:22;24.14;36.38
47757;SHT35;22147;52.388;13.390;2022-09-03T14:03:30;24.50;35.49
47757;SHT35;22147;52.388;13.390;2022-09-03T14:09:32;24.40;34.37
47757;SHT35;22147;52.388;13.390;2022-09-03T14:15:33;24.37;35.83
47757;SHT35;22147;52.388;13.390;2022-09-03T14:18:55;24.60;35.46
47757;SHT35;22147;52.388;13.390;2022-09-03T14:21:57;24.31;35.22
47757;SHT35;22147;52.388;13.390;2022-09-03T14:24:43;24.70;36.00
47757;SHT35;22147;52.388;13.390;2022-09-03T14:27:12;25.20;35.30
47757;SHT35;22147;52.388;13.390;2022-09-03T14:29:57;24.98;33.00
47757;SHT35;22147;52.388;13.390;2022-09-03T15:00:21;26.13;34.12
47757;SHT35;22147;52.388;13.390;2022-09-03T15:07:57;26.08;32.05
47757;SHT35;22147;52.388;13.390;2022-09-03T15:10:51;26.24;31.74
47757;SHT35;22147;52.388;13.390;2022-09-03T15:13:52;25.03;32.86
47757;SHT35;22147;52.388;13.390;2022-09-03T15:20:02;24.54;34.27
47757;SHT35;22147;52.388;13.390;2022-09-03T15:39:21;25.94;33.71
47757;SHT35;22147;52.388;13.390;2022-09-03T15:42:24;25.74;33.25
47757;SHT35;22147;52.388;13.390;2022-09-03T15:45:07;25.74;33.46
47757;SHT35;22147;52.388;13.390;2022-09-03T15:53:44;24.85;35.83
47757;SHT35;22147;52.388;13.390;2022-09-03T15:59:30;23.81;35.86
47757;SHT35;22147;52.388;13.390;2022-09-03T16:02:49;23.42;38.36
47757;SHT35;22147;52.388;13.390;2022-09-03T16:05:41;23.01;37.95
47757;SHT35;22147;52.388;13.390;2022-09-03T16:08:41;22.77;38.07
47757;SHT35;22147;52.388;13.390;2022-09-03T16:11:38;22.42;40.28
47757;SHT35;22147;52.388;13.390;2022-09-03T16:17:04;22.22;39.76
47757;SHT35;22147;52.388;13.390;2022-09-03T16:20:06;22.05;40.16
47757;SHT35;22147;52.388;13.390;2022-09-03T16:23:24;21.87;40.62
47757;SHT35;22147;52.388;13.390;2022-09-03T16:26:24;21.91;40.69
47757;SHT35;22147;52.388;13.390;2022-09-03T16:29:06;21.90;40.43
47757;SHT35;22147;52.388;13.390;2022-09-03T17:06:03;20.98;44.12
47757;SHT35;22147;52.388;13.390;2022-09-03T17:12:24;20.75;43.98
47757;SHT35;22147;52.388;13.390;2022-09-03T17:15:08;20.60;44.54
47757;SHT35;22147;52.388;13.390;2022-09-03T17:18:21;20.47;45.05
47757;SHT35;22147;52.388;13.390;2022-09-03T17:24:43;20.08;46.63
47757;SHT35;22147;52.388;13.390;2022-09-03T17:36:25;19.90;45.93
47757;SHT35;22147;52.388;13.390;2022-09-03T17:39:57;20.00;46.18
47757;SHT35;22147;52.388;13.390;2022-09-03T17:43:30;19.94;46.06
47757;SHT35;22147;52.388;13.390;2022-09-03T17:49:00;19.72;47.42
47757;SHT35;22147;52.388;13.390;2022-09-03T17:52:07;19.61;47.49
47757;SHT35;22147;52.388;13.390;2022-09-03T17:54:47;19.59;47.12
47757;SHT35;22147;52.388;13.390;2022-09-03T17:57:30;19.51;48.04
47757;SHT35;22147;52.388;13.390;2022-09-03T18:02:59;19.44;47.68
47757;SHT35;22147;52.388;13.390;2022-09-03T18:05:45;19.37;48.34
47757;SHT35;22147;52.388;13.390;2022-09-03T18:08:40;19.27;48.13
47757;SHT35;22147;52.388;13.390;2022-09-03T18:11:34;19.17;48.73
47757;SHT35;22147;52.388;13.390;2022-09-03T18:14:48;19.15;49.45
47757;SHT35;22147;52.388;13.390;2022-09-03T18:17:53;19.18;49.50
47757;SHT35;22147;52.388;13.390;2022-09-03T18:20:48;19.14;49.18
47757;SHT35;22147;52.388;13.390;2022-09-03T18:27:27;19.25;48.78
47757;SHT35;22147;52.388;13.390;2022-09-03T18:30:18;19.27;47.98
47757;SHT35;22147;52.388;13.390;2022-09-03T18:33:03;19.45;47.72
47757;SHT35;22147;52.388;13.390;2022-09-03T18:35:49;19.35;48.31
47757;SHT35;22147;52.388;13.390;2022-09-03T18:38:39;19.23;48.60
47757;SHT35;22147;52.388;13.390;2022-09-03T18:45:42;18.99;49.28
47757;SHT35;22147;52.388;13.390;2022-09-03T18:49:27;18.89;51.34
47757;SHT35;22147;52.388;13.390;2022-09-03T18:52:39;18.76;51.44
47757;SHT35;22147;52.388;13.390;2022-09-03T18:59:26;18.66;52.27
47757;SHT35;22147;52.388;13.390;2022-09-03T19:06:14;18.57;50.37
47757;SHT35;22147;52.388;13.390;2022-09-03T19:20:21;18.39;50.76
47757;SHT35;22147;52.388;13.390;2022-09-03T19:23:09;18.36;51.34
47757;SHT35;22147;52.388;13.390;2022-09-03T19:27:28;18.27;51.19
47757;SHT35;22147;52.388;13.390;2022-09-03T20:01:46;18.07;52.43
47757;SHT35;22147;52.388;13.390;2022-09-03T20:05:01;18.04;51.85
47757;SHT35;22147;52.388;13.390;2022-09-03T20:07:54;18.03;52.03
47757;SHT35;22147;52.388;13.390;2022-09-03T20:10:46;17.96;52.26
47757;SHT35;22147;52.388;13.390;2022-09-03T20:13:19;17.93;52.04
47757;SHT35;22147;52.388;13.390;2022-09-03T20:16:30;17.91;52.38
47757;SHT35;22147;52.388;13.390;2022-09-03T20:22:58;18.07;51.26
47757;SHT35;22147;52.388;13.390;2022-09-03T20:26:23;17.97;51.86
47757;SHT35;22147;52.388;13.390;2022-09-03T20:29:36;17.93;51.58
47757;SHT35;22147;52.388;13.390;2022-09-03T20:39:04;17.86;51.78
47757;SHT35;22147;52.388;13.390;2022-09-03T20:45:13;17.87;51.14
47757;SHT35;22147;52.388;13.390;2022-09-03T20:51:12;17.83;52.35
47757;SHT35;22147;52.388;13.390;2022-09-03T21:03:03;17.65;51.90
47757;SHT35;22147;52.388;13.390;2022-09-03T21:09:06;17.50;53.66
47757;SHT35;22147;52.388;13.390;2022-09-03T21:12:41;17.48;52.53
47757;SHT35;22147;52.388;13.390;2022-09-03T21:18:26;17.48;53.28
47757;SHT35;22147;52.388;13.390;2022-09-03T21:21:40;17.40;53.30
47757;SHT35;22147;52.388;13.390;2022-09-03T21:24:55;17.35;53.02
47757;SHT35;22147;52.388;13.390;2022-09-03T21:27:40;17.35;52.70
47757;SHT35;22147;52.388;13.390;2022-09-03T21:30:17;17.36;52.56
47757;SHT35;22147;52.388;13.390;2022-09-03T21:33:04;17.39;52.67
47757;SHT35;22147;52.388;13.390;2022-09-03T21:35:41;17.34;52.52
47757;SHT35;22147;52.388;13.390;2022-09-03T21:38:26;17.38;53.00
47757;SHT35;22147;52.388;13.390;2022-09-03T21:41:30;17.29;53.46
47757;SHT35;22147;52.388;13.390;2022-09-03T21:44:36;17.14;53.95
47757;SHT35;22147;52.388;13.390;2022-09-03T21:47:17;17.05;54.38
47757;SHT35;22147;52.388;13.390;2022-09-03T21:50:10;17.05;54.76
47757;SHT35;22147;52.388;13.390;2022-09-03T21:53:08;17.04;53.11
47757;SHT35;22147;52.388;13.390;2022-09-03T21:56:33;17.07;53.87
47757;SHT35;22147;52.388;13.390;2022-09-03T22:02:30;16.95;53.90
47757;SHT35;22147;52.388;13.390;2022-09-03T22:05:01;16.92;53.62
47757;SHT35;22147;52.388;13.390;2022-09-03T22:13:29;16.76;54.89
47757;SHT35;22147;52.388;13.390;2022-09-03T22:16:22;16.79;54.66
47757;SHT35;22147;52.388;13.390;2022-09-03T22:18:50;16.71;54.71
47757;SHT35;22147;52.388;13.390;2022-09-03T22:21:35;16.59;55.31
47757;SHT35;22147;52.388;13.390;2022-09-03T22:24:57;16.59;55.64
47757;SHT35;22147;52.388;13.390;2022-09-03T22:28:05;16.46;55.99
47757;SHT35;22147;52.388;13.390;2022-09-03T22:31:03;16.44;55.72